Hauptseite
METAR-TAF:

METAR-TAF

Flughäfen :

Conakry, Guinea

Flughafen Conakry

Breite: 09-34N, Länge: 013-37W, Höhe: 26 m

Beobachtung

Neuester Wetterbericht von vor 51 Minuten, um 23:00 UTC
Windstille
Temperatur 26°C
Luftfeuchtigkeit 79%
Luftdruck 1012 hPa
Sichtweite: 3000 m
feuchter Dunst

METAR: GUCY 172300Z 00000KT 3000 BR NSC 26/22 Q1012 NOSIG

Zeit: 23:51 (23:51 UTC)

Prognose

Neuester Wetterbericht von vor 51 Minuten, um 23:00 UTC
Gültige Prognose vom 18 um 00 UTC bis 19 um 06 UTC
Wind 4 kt aus Nordwest
Sichtweite: 5000 m
trockener Dunst
Zeitweise
vom 18 um 04 UTC bis 18 um 09 UTC
Wind 2 kt aus unterschiedlichen Richtungen
Sichtweite: 2500 m
Leicht bewölkt in der Höhe von 1500 ft
feuchter Dunst
Übergehend zu
vom 18 um 18 UTC bis 18 um 22 UTC
Sichtweite: 4000 m
trockener Dunst

TAF: GUCY 172300Z 1800/1906 32004KT 5000 HZ NSC TEMPO 1804/1809 VRB02KT 2500 BR FEW015 BECMG 1818/1822 4000 HZ

Wetterbeobachtungen und Prognosen von mehr als 4000 Flughäfen (METAR und TAF Bericht).

Die verfügbaren Stationen werden durch gelbe und rote Markierungen auf der Karte dargestellt.

Führen Sie die Maus auf sie, um den Namen der Station zu sehen.

Darauf klicken, um die Beobachtung von Wetterbeobachtungen und Prognosen zu sehen.

Um die Karte zu ändern : klicken Sie auf den grünen Tasten mit einem schwarzen Kreuz Zum Vergrößern, auf den grünen Button mit einem Gedankenstrich zu verkleinern, oder auf die grünen Pfeile für benachbarte Karten.


METAR-TAF: